sensor_id;sensor_type;location;lat;lon;timestamp;P1;durP1;ratioP1;P2;durP2;ratioP2
27265;SDS011;14766;51.380;13.762;2023-02-01T00:01:20;7.22;;;3.08;;
27265;SDS011;14766;51.380;13.762;2023-02-01T00:03:47;7.50;;;3.25;;
27265;SDS011;14766;51.380;13.762;2023-02-01T00:06:14;8.10;;;3.05;;
27265;SDS011;14766;51.380;13.762;2023-02-01T00:08:41;6.13;;;2.88;;
27265;SDS011;14766;51.380;13.762;2023-02-01T00:11:09;8.75;;;3.53;;
27265;SDS011;14766;51.380;13.762;2023-02-01T00:13:38;9.52;;;3.53;;
27265;SDS011;14766;51.380;13.762;2023-02-01T00:18:45;7.18;;;3.13;;
27265;SDS011;14766;51.380;13.762;2023-02-01T00:21:13;9.77;;;3.40;;
27265;SDS011;14766;51.380;13.762;2023-02-01T00:23:41;9.43;;;3.40;;
27265;SDS011;14766;51.380;13.762;2023-02-01T00:26:16;6.72;;;3.28;;
27265;SDS011;14766;51.380;13.762;2023-02-01T00:28:52;11.80;;;4.00;;
27265;SDS011;14766;51.380;13.762;2023-02-01T00:31:19;8.73;;;3.30;;
27265;SDS011;14766;51.380;13.762;2023-02-01T00:33:47;9.55;;;3.35;;
27265;SDS011;14766;51.380;13.762;2023-02-01T00:36:15;6.47;;;3.00;;
27265;SDS011;14766;51.380;13.762;2023-02-01T00:38:42;7.40;;;3.42;;
27265;SDS011;14766;51.380;13.762;2023-02-01T00:41:13;13.23;;;3.70;;
27265;SDS011;14766;51.380;13.762;2023-02-01T00:43:47;13.38;;;4.10;;
27265;SDS011;14766;51.380;13.762;2023-02-01T00:46:15;7.93;;;3.50;;
27265;SDS011;14766;51.380;13.762;2023-02-01T00:48:44;9.23;;;3.90;;
27265;SDS011;14766;51.380;13.762;2023-02-01T00:51:12;9.73;;;3.53;;
27265;SDS011;14766;51.380;13.762;2023-02-01T00:53:41;15.98;;;3.80;;
27265;SDS011;14766;51.380;13.762;2023-02-01T00:56:08;6.95;;;3.33;;
27265;SDS011;14766;51.380;13.762;2023-02-01T00:58:35;8.75;;;4.18;;
27265;SDS011;14766;51.380;13.762;2023-02-01T01:03:34;9.63;;;3.55;;
27265;SDS011;14766;51.380;13.762;2023-02-01T01:06:05;14.70;;;3.30;;
27265;SDS011;14766;51.380;13.762;2023-02-01T01:08:34;6.10;;;3.17;;
27265;SDS011;14766;51.380;13.762;2023-02-01T01:11:12;9.18;;;3.10;;
27265;SDS011;14766;51.380;13.762;2023-02-01T01:13:46;7.93;;;3.30;;
27265;SDS011;14766;51.380;13.762;2023-02-01T01:16:14;9.32;;;2.60;;
27265;SDS011;14766;51.380;13.762;2023-02-01T01:18:41;11.50;;;3.42;;
27265;SDS011;14766;51.380;13.762;2023-02-01T01:21:08;7.97;;;3.17;;
27265;SDS011;14766;51.380;13.762;2023-02-01T01:23:38;8.25;;;2.90;;
27265;SDS011;14766;51.380;13.762;2023-02-01T01:26:07;6.22;;;3.00;;
27265;SDS011;14766;51.380;13.762;2023-02-01T01:28:36;9.35;;;2.90;;
27265;SDS011;14766;51.380;13.762;2023-02-01T01:31:03;7.28;;;2.83;;
27265;SDS011;14766;51.380;13.762;2023-02-01T01:33:35;8.93;;;3.00;;
27265;SDS011;14766;51.380;13.762;2023-02-01T01:36:03;7.07;;;2.83;;
27265;SDS011;14766;51.380;13.762;2023-02-01T01:38:32;8.35;;;2.78;;
27265;SDS011;14766;51.380;13.762;2023-02-01T01:40:59;6.53;;;2.53;;
27265;SDS011;14766;51.380;13.762;2023-02-01T01:43:44;7.25;;;3.10;;
27265;SDS011;14766;51.380;13.762;2023-02-01T01:46:17;7.25;;;2.40;;
27265;SDS011;14766;51.380;13.762;2023-02-01T01:49:08;7.85;;;2.88;;
27265;SDS011;14766;51.380;13.762;2023-02-01T01:51:51;8.13;;;2.53;;
27265;SDS011;14766;51.380;13.762;2023-02-01T01:54:25;8.90;;;2.85;;
27265;SDS011;14766;51.380;13.762;2023-02-01T01:57:05;8.63;;;2.67;;
27265;SDS011;14766;51.380;13.762;2023-02-01T01:59:38;10.52;;;2.90;;
27265;SDS011;14766;51.380;13.762;2023-02-01T02:02:08;6.60;;;2.35;;
27265;SDS011;14766;51.380;13.762;2023-02-01T02:04:35;14.20;;;2.78;;
27265;SDS011;14766;51.380;13.762;2023-02-01T02:07:10;7.35;;;2.30;;
27265;SDS011;14766;51.380;13.762;2023-02-01T02:09:42;10.73;;;3.10;;
27265;SDS011;14766;51.380;13.762;2023-02-01T02:12:25;7.00;;;2.10;;
27265;SDS011;14766;51.380;13.762;2023-02-01T02:14:52;7.35;;;2.20;;
27265;SDS011;14766;51.380;13.762;2023-02-01T02:20:28;10.98;;;2.38;;
27265;SDS011;14766;51.380;13.762;2023-02-01T02:34:58;5.80;;;2.85;;
27265;SDS011;14766;51.380;13.762;2023-02-01T02:37:37;8.57;;;2.47;;
27265;SDS011;14766;51.380;13.762;2023-02-01T02:43:08;10.20;;;2.38;;
27265;SDS011;14766;51.380;13.762;2023-02-01T02:54:30;8.93;;;2.30;;
27265;SDS011;14766;51.380;13.762;2023-02-01T02:57:15;9.77;;;2.30;;
27265;SDS011;14766;51.380;13.762;2023-02-01T03:00:06;10.57;;;2.85;;
27265;SDS011;14766;51.380;13.762;2023-02-01T03:02:55;12.27;;;2.80;;
27265;SDS011;14766;51.380;13.762;2023-02-01T03:05:43;9.70;;;3.10;;
27265;SDS011;14766;51.380;13.762;2023-02-01T03:08:22;10.30;;;2.60;;
27265;SDS011;14766;51.380;13.762;2023-02-01T03:10:57;9.93;;;2.78;;
27265;SDS011;14766;51.380;13.762;2023-02-01T03:16:40;13.50;;;3.40;;
27265;SDS011;14766;51.380;13.762;2023-02-01T03:21:55;14.32;;;3.20;;
27265;SDS011;14766;51.380;13.762;2023-02-01T03:24:37;12.85;;;2.65;;
27265;SDS011;14766;51.380;13.762;2023-02-01T03:27:09;10.15;;;2.67;;
27265;SDS011;14766;51.380;13.762;2023-02-01T03:29:40;7.70;;;2.55;;
27265;SDS011;14766;51.380;13.762;2023-02-01T03:32:14;10.30;;;2.63;;
27265;SDS011;14766;51.380;13.762;2023-02-01T03:34:42;9.85;;;2.80;;
27265;SDS011;14766;51.380;13.762;2023-02-01T03:37:10;11.10;;;2.58;;
27265;SDS011;14766;51.380;13.762;2023-02-01T03:42:37;8.20;;;2.20;;
27265;SDS011;14766;51.380;13.762;2023-02-01T03:45:18;10.85;;;2.58;;
27265;SDS011;14766;51.380;13.762;2023-02-01T03:48:00;16.02;;;3.10;;
27265;SDS011;14766;51.380;13.762;2023-02-01T03:50:28;6.95;;;2.60;;
27265;SDS011;14766;51.380;13.762;2023-02-01T03:52:58;13.50;;;3.55;;
27265;SDS011;14766;51.380;13.762;2023-02-01T03:55:37;10.88;;;2.70;;
27265;SDS011;14766;51.380;13.762;2023-02-01T03:58:38;9.48;;;2.95;;
27265;SDS011;14766;51.380;13.762;2023-02-01T04:00:59;12.45;;;2.92;;
27265;SDS011;14766;51.380;13.762;2023-02-01T04:03:28;9.75;;;2.92;;
27265;SDS011;14766;51.380;13.762;2023-02-01T04:05:56;9.18;;;2.42;;
27265;SDS011;14766;51.380;13.762;2023-02-01T04:08:26;11.85;;;2.80;;
27265;SDS011;14766;51.380;13.762;2023-02-01T04:10:53;14.18;;;2.97;;
27265;SDS011;14766;51.380;13.762;2023-02-01T04:13:20;11.90;;;2.55;;
27265;SDS011;14766;51.380;13.762;2023-02-01T04:15:47;11.80;;;3.83;;
27265;SDS011;14766;51.380;13.762;2023-02-01T04:18:16;14.50;;;2.47;;
27265;SDS011;14766;51.380;13.762;2023-02-01T04:20:43;13.48;;;3.10;;
27265;SDS011;14766;51.380;13.762;2023-02-01T04:23:11;10.45;;;2.60;;
27265;SDS011;14766;51.380;13.762;2023-02-01T04:25:38;13.02;;;2.80;;
27265;SDS011;14766;51.380;13.762;2023-02-01T04:28:05;9.07;;;2.63;;
27265;SDS011;14766;51.380;13.762;2023-02-01T04:30:33;15.02;;;3.00;;
27265;SDS011;14766;51.380;13.762;2023-02-01T04:33:00;12.75;;;3.35;;
27265;SDS011;14766;51.380;13.762;2023-02-01T04:35:30;14.50;;;3.00;;
27265;SDS011;14766;51.380;13.762;2023-02-01T04:37:57;13.07;;;2.90;;
27265;SDS011;14766;51.380;13.762;2023-02-01T04:40:24;11.63;;;3.25;;
27265;SDS011;14766;51.380;13.762;2023-02-01T04:42:51;10.43;;;2.42;;
27265;SDS011;14766;51.380;13.762;2023-02-01T04:45:18;18.20;;;2.85;;
27265;SDS011;14766;51.380;13.762;2023-02-01T04:47:45;9.27;;;3.00;;
27265;SDS011;14766;51.380;13.762;2023-02-01T04:50:14;8.75;;;2.67;;
27265;SDS011;14766;51.380;13.762;2023-02-01T04:52:41;12.68;;;3.85;;
27265;SDS011;14766;51.380;13.762;2023-02-01T04:55:08;12.90;;;2.70;;
27265;SDS011;14766;51.380;13.762;2023-02-01T04:57:35;15.27;;;3.33;;
27265;SDS011;14766;51.380;13.762;2023-02-01T05:00:05;11.63;;;2.55;;
27265;SDS011;14766;51.380;13.762;2023-02-01T05:02:34;10.45;;;2.90;;
27265;SDS011;14766;51.380;13.762;2023-02-01T05:05:01;10.13;;;3.00;;
27265;SDS011;14766;51.380;13.762;2023-02-01T05:07:29;15.43;;;3.20;;
27265;SDS011;14766;51.380;13.762;2023-02-01T05:09:56;13.73;;;2.80;;
27265;SDS011;14766;51.380;13.762;2023-02-01T05:12:23;16.23;;;3.58;;
27265;SDS011;14766;51.380;13.762;2023-02-01T05:15:08;17.27;;;3.40;;
27265;SDS011;14766;51.380;13.762;2023-02-01T05:17:36;13.77;;;3.13;;
27265;SDS011;14766;51.380;13.762;2023-02-01T05:20:03;15.00;;;2.78;;
27265;SDS011;14766;51.380;13.762;2023-02-01T05:22:30;14.68;;;2.92;;
27265;SDS011;14766;51.380;13.762;2023-02-01T05:24:57;14.35;;;2.78;;
27265;SDS011;14766;51.380;13.762;2023-02-01T05:27:24;10.57;;;2.97;;
27265;SDS011;14766;51.380;13.762;2023-02-01T05:29:51;11.18;;;3.30;;
27265;SDS011;14766;51.380;13.762;2023-02-01T05:32:18;9.93;;;2.78;;
27265;SDS011;14766;51.380;13.762;2023-02-01T05:34:48;15.15;;;3.05;;
27265;SDS011;14766;51.380;13.762;2023-02-01T05:37:15;11.20;;;2.58;;
27265;SDS011;14766;51.380;13.762;2023-02-01T05:39:42;16.30;;;3.70;;
27265;SDS011;14766;51.380;13.762;2023-02-01T05:42:09;12.73;;;2.75;;
27265;SDS011;14766;51.380;13.762;2023-02-01T05:44:36;20.58;;;3.53;;
27265;SDS011;14766;51.380;13.762;2023-02-01T05:47:04;14.13;;;3.17;;
27265;SDS011;14766;51.380;13.762;2023-02-01T05:49:31;12.45;;;3.13;;
27265;SDS011;14766;51.380;13.762;2023-02-01T05:52:01;9.15;;;2.70;;
27265;SDS011;14766;51.380;13.762;2023-02-01T05:54:28;13.38;;;3.17;;
27265;SDS011;14766;51.380;13.762;2023-02-01T05:56:56;10.95;;;3.15;;
27265;SDS011;14766;51.380;13.762;2023-02-01T05:59:23;17.67;;;3.80;;
27265;SDS011;14766;51.380;13.762;2023-02-01T06:01:50;10.63;;;3.40;;
27265;SDS011;14766;51.380;13.762;2023-02-01T06:04:17;12.10;;;2.88;;
27265;SDS011;14766;51.380;13.762;2023-02-01T06:06:44;12.52;;;3.17;;
27265;SDS011;14766;51.380;13.762;2023-02-01T06:09:11;15.38;;;3.50;;
27265;SDS011;14766;51.380;13.762;2023-02-01T06:11:39;12.38;;;3.35;;
27265;SDS011;14766;51.380;13.762;2023-02-01T06:14:06;10.52;;;3.25;;
27265;SDS011;14766;51.380;13.762;2023-02-01T06:16:34;15.30;;;3.00;;
27265;SDS011;14766;51.380;13.762;2023-02-01T06:19:01;11.90;;;3.03;;
27265;SDS011;14766;51.380;13.762;2023-02-01T06:21:28;15.15;;;3.35;;
27265;SDS011;14766;51.380;13.762;2023-02-01T06:23:55;11.50;;;3.33;;
27265;SDS011;14766;51.380;13.762;2023-02-01T06:26:24;11.27;;;3.63;;
27265;SDS011;14766;51.380;13.762;2023-02-01T06:28:52;12.88;;;3.22;;
27265;SDS011;14766;51.380;13.762;2023-02-01T06:31:19;16.13;;;3.60;;
27265;SDS011;14766;51.380;13.762;2023-02-01T06:33:46;15.05;;;3.22;;
27265;SDS011;14766;51.380;13.762;2023-02-01T06:36:13;12.85;;;3.10;;
27265;SDS011;14766;51.380;13.762;2023-02-01T06:38:42;13.80;;;3.88;;
27265;SDS011;14766;51.380;13.762;2023-02-01T06:41:09;12.45;;;3.00;;
27265;SDS011;14766;51.380;13.762;2023-02-01T06:43:37;10.80;;;2.67;;
27265;SDS011;14766;51.380;13.762;2023-02-01T06:46:05;10.40;;;2.97;;
27265;SDS011;14766;51.380;13.762;2023-02-01T06:48:34;11.82;;;3.05;;
27265;SDS011;14766;51.380;13.762;2023-02-01T06:51:01;11.70;;;2.78;;
27265;SDS011;14766;51.380;13.762;2023-02-01T06:53:28;13.23;;;3.38;;
27265;SDS011;14766;51.380;13.762;2023-02-01T06:55:57;15.15;;;3.50;;
27265;SDS011;14766;51.380;13.762;2023-02-01T06:58:32;11.63;;;3.28;;
27265;SDS011;14766;51.380;13.762;2023-02-01T07:01:07;13.60;;;3.80;;
27265;SDS011;14766;51.380;13.762;2023-02-01T07:03:35;10.20;;;2.50;;
27265;SDS011;14766;51.380;13.762;2023-02-01T07:06:03;16.52;;;3.67;;
27265;SDS011;14766;51.380;13.762;2023-02-01T07:08:32;14.45;;;3.53;;
27265;SDS011;14766;51.380;13.762;2023-02-01T07:11:01;16.02;;;3.20;;
27265;SDS011;14766;51.380;13.762;2023-02-01T07:13:33;12.48;;;2.88;;
27265;SDS011;14766;51.380;13.762;2023-02-01T07:16:01;19.05;;;4.40;;
27265;SDS011;14766;51.380;13.762;2023-02-01T07:18:30;9.00;;;2.78;;
27265;SDS011;14766;51.380;13.762;2023-02-01T07:20:58;9.77;;;3.05;;
27265;SDS011;14766;51.380;13.762;2023-02-01T07:23:26;13.75;;;3.25;;
27265;SDS011;14766;51.380;13.762;2023-02-01T07:25:57;14.35;;;3.70;;
27265;SDS011;14766;51.380;13.762;2023-02-01T07:33:31;13.70;;;3.15;;
27265;SDS011;14766;51.380;13.762;2023-02-01T07:35:59;12.05;;;3.28;;
27265;SDS011;14766;51.380;13.762;2023-02-01T07:38:28;12.73;;;3.13;;
27265;SDS011;14766;51.380;13.762;2023-02-01T07:40:59;12.15;;;3.05;;
27265;SDS011;14766;51.380;13.762;2023-02-01T07:43:28;12.32;;;3.22;;
27265;SDS011;14766;51.380;13.762;2023-02-01T07:45:56;10.68;;;3.03;;
27265;SDS011;14766;51.380;13.762;2023-02-01T07:48:24;13.32;;;3.85;;
27265;SDS011;14766;51.380;13.762;2023-02-01T07:53:33;12.73;;;3.08;;
27265;SDS011;14766;51.380;13.762;2023-02-01T07:56:00;11.23;;;3.10;;
27265;SDS011;14766;51.380;13.762;2023-02-01T07:58:28;9.57;;;2.67;;
27265;SDS011;14766;51.380;13.762;2023-02-01T08:00:55;10.57;;;3.40;;
27265;SDS011;14766;51.380;13.762;2023-02-01T08:03:41;13.98;;;3.67;;
27265;SDS011;14766;51.380;13.762;2023-02-01T08:06:08;12.07;;;3.35;;
27265;SDS011;14766;51.380;13.762;2023-02-01T08:08:35;11.30;;;3.25;;
27265;SDS011;14766;51.380;13.762;2023-02-01T08:11:03;10.65;;;3.15;;
27265;SDS011;14766;51.380;13.762;2023-02-01T08:13:33;9.43;;;2.85;;
27265;SDS011;14766;51.380;13.762;2023-02-01T08:16:02;16.08;;;3.33;;
27265;SDS011;14766;51.380;13.762;2023-02-01T08:18:32;15.50;;;3.60;;
27265;SDS011;14766;51.380;13.762;2023-02-01T08:21:05;16.05;;;4.47;;
27265;SDS011;14766;51.380;13.762;2023-02-01T08:23:34;14.43;;;4.00;;
27265;SDS011;14766;51.380;13.762;2023-02-01T08:26:14;9.50;;;3.20;;
27265;SDS011;14766;51.380;13.762;2023-02-01T08:28:47;11.38;;;2.97;;
27265;SDS011;14766;51.380;13.762;2023-02-01T08:31:20;12.65;;;3.10;;
27265;SDS011;14766;51.380;13.762;2023-02-01T08:33:52;14.90;;;3.35;;
27265;SDS011;14766;51.380;13.762;2023-02-01T08:36:20;11.75;;;3.15;;
27265;SDS011;14766;51.380;13.762;2023-02-01T08:38:49;9.85;;;2.70;;
27265;SDS011;14766;51.380;13.762;2023-02-01T08:41:17;13.73;;;3.40;;
27265;SDS011;14766;51.380;13.762;2023-02-01T08:43:46;11.40;;;3.25;;
27265;SDS011;14766;51.380;13.762;2023-02-01T08:46:14;16.60;;;4.70;;
27265;SDS011;14766;51.380;13.762;2023-02-01T08:48:42;15.50;;;3.38;;
27265;SDS011;14766;51.380;13.762;2023-02-01T08:51:12;13.57;;;3.30;;
27265;SDS011;14766;51.380;13.762;2023-02-01T08:53:40;14.20;;;3.13;;
27265;SDS011;14766;51.380;13.762;2023-02-01T08:56:12;13.95;;;3.55;;
27265;SDS011;14766;51.380;13.762;2023-02-01T08:58:41;8.27;;;3.30;;
27265;SDS011;14766;51.380;13.762;2023-02-01T09:01:13;11.18;;;3.05;;
27265;SDS011;14766;51.380;13.762;2023-02-01T09:03:41;8.70;;;2.83;;
27265;SDS011;14766;51.380;13.762;2023-02-01T09:06:10;14.88;;;3.40;;
27265;SDS011;14766;51.380;13.762;2023-02-01T09:08:38;13.15;;;3.20;;
27265;SDS011;14766;51.380;13.762;2023-02-01T09:11:08;12.02;;;3.30;;
27265;SDS011;14766;51.380;13.762;2023-02-01T09:13:38;11.05;;;3.42;;
27265;SDS011;14766;51.380;13.762;2023-02-01T09:16:05;10.65;;;2.90;;
27265;SDS011;14766;51.380;13.762;2023-02-01T09:18:33;14.45;;;4.13;;
27265;SDS011;14766;51.380;13.762;2023-02-01T09:21:03;14.10;;;3.47;;
27265;SDS011;14766;51.380;13.762;2023-02-01T09:23:32;13.40;;;4.63;;
27265;SDS011;14766;51.380;13.762;2023-02-01T09:26:03;9.00;;;3.10;;
27265;SDS011;14766;51.380;13.762;2023-02-01T09:28:31;8.85;;;2.88;;
27265;SDS011;14766;51.380;13.762;2023-02-01T09:30:58;8.55;;;2.83;;
27265;SDS011;14766;51.380;13.762;2023-02-01T09:33:27;8.65;;;2.45;;
27265;SDS011;14766;51.380;13.762;2023-02-01T09:35:56;8.75;;;2.75;;
27265;SDS011;14766;51.380;13.762;2023-02-01T09:38:24;9.23;;;2.83;;
27265;SDS011;14766;51.380;13.762;2023-02-01T09:40:54;7.82;;;2.65;;
27265;SDS011;14766;51.380;13.762;2023-02-01T09:48:57;9.85;;;3.53;;
27265;SDS011;14766;51.380;13.762;2023-02-01T09:51:31;9.57;;;3.25;;
27265;SDS011;14766;51.380;13.762;2023-02-01T09:54:09;9.18;;;2.95;;
27265;SDS011;14766;51.380;13.762;2023-02-01T09:56:49;8.30;;;2.35;;
27265;SDS011;14766;51.380;13.762;2023-02-01T09:59:37;7.03;;;2.22;;
27265;SDS011;14766;51.380;13.762;2023-02-01T10:02:17;7.15;;;2.10;;
27265;SDS011;14766;51.380;13.762;2023-02-01T10:24:24;3.40;;;2.13;;
27265;SDS011;14766;51.380;13.762;2023-02-01T10:27:01;4.50;;;2.45;;
27265;SDS011;14766;51.380;13.762;2023-02-01T10:29:37;5.38;;;3.33;;
27265;SDS011;14766;51.380;13.762;2023-02-01T10:32:15;10.48;;;5.82;;
27265;SDS011;14766;51.380;13.762;2023-02-01T10:34:46;9.18;;;3.80;;
27265;SDS011;14766;51.380;13.762;2023-02-01T10:37:29;9.48;;;4.32;;
27265;SDS011;14766;51.380;13.762;2023-02-01T10:40:41;7.45;;;3.80;;
27265;SDS011;14766;51.380;13.762;2023-02-01T10:42:54;6.97;;;3.03;;
27265;SDS011;14766;51.380;13.762;2023-02-01T10:45:27;8.15;;;3.20;;
27265;SDS011;14766;51.380;13.762;2023-02-01T10:47:57;6.95;;;2.83;;
27265;SDS011;14766;51.380;13.762;2023-02-01T10:53:25;7.38;;;3.08;;
27265;SDS011;14766;51.380;13.762;2023-02-01T10:55:55;6.80;;;2.22;;
27265;SDS011;14766;51.380;13.762;2023-02-01T10:58:27;6.20;;;2.67;;
27265;SDS011;14766;51.380;13.762;2023-02-01T11:01:02;8.80;;;2.55;;
27265;SDS011;14766;51.380;13.762;2023-02-01T11:03:33;4.72;;;2.30;;
27265;SDS011;14766;51.380;13.762;2023-02-01T11:06:34;12.25;;;2.80;;
27265;SDS011;14766;51.380;13.762;2023-02-01T11:11:33;8.45;;;2.58;;
27265;SDS011;14766;51.380;13.762;2023-02-01T11:16:53;9.10;;;3.03;;
27265;SDS011;14766;51.380;13.762;2023-02-01T11:19:57;6.32;;;2.75;;
27265;SDS011;14766;51.380;13.762;2023-02-01T11:22:29;8.88;;;2.90;;
27265;SDS011;14766;51.380;13.762;2023-02-01T11:24:57;7.15;;;2.58;;
27265;SDS011;14766;51.380;13.762;2023-02-01T11:27:28;7.95;;;2.78;;
27265;SDS011;14766;51.380;13.762;2023-02-01T11:29:57;9.90;;;3.22;;
27265;SDS011;14766;51.380;13.762;2023-02-01T11:32:28;6.85;;;2.88;;
27265;SDS011;14766;51.380;13.762;2023-02-01T11:35:04;7.88;;;2.78;;
27265;SDS011;14766;51.380;13.762;2023-02-01T11:37:39;7.07;;;2.88;;
27265;SDS011;14766;51.380;13.762;2023-02-01T11:42:36;8.05;;;2.53;;
27265;SDS011;14766;51.380;13.762;2023-02-01T11:45:31;9.77;;;3.38;;
27265;SDS011;14766;51.380;13.762;2023-02-01T11:48:13;7.43;;;2.72;;
27265;SDS011;14766;51.380;13.762;2023-02-01T11:53:44;7.88;;;3.10;;
27265;SDS011;14766;51.380;13.762;2023-02-01T11:59:28;6.97;;;3.40;;
27265;SDS011;14766;51.380;13.762;2023-02-01T12:21:45;5.35;;;1.83;;
27265;SDS011;14766;51.380;13.762;2023-02-01T12:24:52;5.10;;;2.35;;
27265;SDS011;14766;51.380;13.762;2023-02-01T12:35:39;4.65;;;1.90;;
27265;SDS011;14766;51.380;13.762;2023-02-01T12:41:30;5.15;;;2.10;;
27265;SDS011;14766;51.380;13.762;2023-02-01T12:44:32;5.95;;;2.30;;
27265;SDS011;14766;51.380;13.762;2023-02-01T12:47:27;5.32;;;2.25;;
27265;SDS011;14766;51.380;13.762;2023-02-01T12:53:43;11.20;;;2.95;;
27265;SDS011;14766;51.380;13.762;2023-02-01T12:55:57;9.43;;;2.60;;
27265;SDS011;14766;51.380;13.762;2023-02-01T12:58:38;7.85;;;2.47;;
27265;SDS011;14766;51.380;13.762;2023-02-01T13:01:24;9.98;;;2.75;;
27265;SDS011;14766;51.380;13.762;2023-02-01T13:04:16;9.73;;;3.33;;
27265;SDS011;14766;51.380;13.762;2023-02-01T13:06:50;12.23;;;3.45;;
27265;SDS011;14766;51.380;13.762;2023-02-01T13:11:47;11.15;;;4.90;;
27265;SDS011;14766;51.380;13.762;2023-02-01T13:17:16;6.68;;;2.97;;
27265;SDS011;14766;51.380;13.762;2023-02-01T13:22:45;7.75;;;2.20;;
27265;SDS011;14766;51.380;13.762;2023-02-01T13:25:30;7.03;;;2.10;;
27265;SDS011;14766;51.380;13.762;2023-02-01T13:28:21;6.90;;;2.80;;
27265;SDS011;14766;51.380;13.762;2023-02-01T13:42:01;11.10;;;3.40;;
27265;SDS011;14766;51.380;13.762;2023-02-01T13:44:55;11.75;;;3.10;;
27265;SDS011;14766;51.380;13.762;2023-02-01T13:47:24;8.73;;;2.83;;
27265;SDS011;14766;51.380;13.762;2023-02-01T13:49:55;10.00;;;3.50;;
27265;SDS011;14766;51.380;13.762;2023-02-01T13:52:32;16.70;;;3.25;;
27265;SDS011;14766;51.380;13.762;2023-02-01T13:57:40;12.07;;;3.42;;
27265;SDS011;14766;51.380;13.762;2023-02-01T14:00:27;11.52;;;4.72;;
27265;SDS011;14766;51.380;13.762;2023-02-01T14:10:56;15.15;;;6.10;;
27265;SDS011;14766;51.380;13.762;2023-02-01T14:13:32;11.25;;;2.95;;
27265;SDS011;14766;51.380;13.762;2023-02-01T14:16:15;10.25;;;3.35;;
27265;SDS011;14766;51.380;13.762;2023-02-01T14:34:19;8.70;;;2.72;;
27265;SDS011;14766;51.380;13.762;2023-02-01T14:37:07;11.20;;;2.40;;
27265;SDS011;14766;51.380;13.762;2023-02-01T14:39:49;12.55;;;2.63;;
27265;SDS011;14766;51.380;13.762;2023-02-01T14:47:52;7.80;;;2.10;;
27265;SDS011;14766;51.380;13.762;2023-02-01T14:50:38;9.60;;;2.35;;
27265;SDS011;14766;51.380;13.762;2023-02-01T14:53:13;7.55;;;2.00;;
27265;SDS011;14766;51.380;13.762;2023-02-01T15:01:16;11.52;;;3.17;;
27265;SDS011;14766;51.380;13.762;2023-02-01T15:03:46;9.38;;;2.42;;
27265;SDS011;14766;51.380;13.762;2023-02-01T15:14:42;15.00;;;3.33;;
27265;SDS011;14766;51.380;13.762;2023-02-01T15:17:23;8.98;;;2.40;;
27265;SDS011;14766;51.380;13.762;2023-02-01T15:19:58;7.82;;;2.90;;
27265;SDS011;14766;51.380;13.762;2023-02-01T15:22:38;9.15;;;3.28;;
27265;SDS011;14766;51.380;13.762;2023-02-01T15:25:06;10.95;;;3.47;;
27265;SDS011;14766;51.380;13.762;2023-02-01T15:27:44;10.45;;;2.97;;
27265;SDS011;14766;51.380;13.762;2023-02-01T15:30:16;10.45;;;2.97;;
27265;SDS011;14766;51.380;13.762;2023-02-01T15:32:45;10.05;;;3.72;;
27265;SDS011;14766;51.380;13.762;2023-02-01T15:43:38;13.07;;;5.25;;
27265;SDS011;14766;51.380;13.762;2023-02-01T15:46:17;13.68;;;4.38;;
27265;SDS011;14766;51.380;13.762;2023-02-01T15:49:15;9.32;;;3.53;;
27265;SDS011;14766;51.380;13.762;2023-02-01T15:52:00;8.55;;;3.00;;
27265;SDS011;14766;51.380;13.762;2023-02-01T15:54:43;9.75;;;3.10;;
27265;SDS011;14766;51.380;13.762;2023-02-01T15:59:48;20.10;;;9.82;;
27265;SDS011;14766;51.380;13.762;2023-02-01T16:05:02;9.45;;;3.33;;
27265;SDS011;14766;51.380;13.762;2023-02-01T16:07:32;9.05;;;3.22;;
27265;SDS011;14766;51.380;13.762;2023-02-01T16:10:01;10.52;;;4.15;;
27265;SDS011;14766;51.380;13.762;2023-02-01T16:12:46;15.65;;;4.55;;
27265;SDS011;14766;51.380;13.762;2023-02-01T16:15:14;12.23;;;3.70;;
27265;SDS011;14766;51.380;13.762;2023-02-01T16:17:41;10.13;;;4.05;;
27265;SDS011;14766;51.380;13.762;2023-02-01T16:20:10;11.55;;;3.47;;
27265;SDS011;14766;51.380;13.762;2023-02-01T16:22:37;9.52;;;3.80;;
27265;SDS011;14766;51.380;13.762;2023-02-01T16:25:05;9.65;;;3.40;;
27265;SDS011;14766;51.380;13.762;2023-02-01T16:27:32;11.10;;;3.38;;
27265;SDS011;14766;51.380;13.762;2023-02-01T16:29:59;12.70;;;4.20;;
27265;SDS011;14766;51.380;13.762;2023-02-01T16:32:26;5.75;;;3.28;;
27265;SDS011;14766;51.380;13.762;2023-02-01T16:34:53;7.95;;;3.53;;
27265;SDS011;14766;51.380;13.762;2023-02-01T16:37:24;9.65;;;4.22;;
27265;SDS011;14766;51.380;13.762;2023-02-01T16:39:53;8.98;;;3.47;;
27265;SDS011;14766;51.380;13.762;2023-02-01T16:42:20;9.70;;;4.10;;
27265;SDS011;14766;51.380;13.762;2023-02-01T16:44:47;8.70;;;3.80;;
27265;SDS011;14766;51.380;13.762;2023-02-01T16:47:19;10.02;;;4.57;;
27265;SDS011;14766;51.380;13.762;2023-02-01T16:49:49;12.30;;;4.90;;
27265;SDS011;14766;51.380;13.762;2023-02-01T16:52:21;13.82;;;4.97;;
27265;SDS011;14766;51.380;13.762;2023-02-01T16:54:50;10.68;;;3.53;;
27265;SDS011;14766;51.380;13.762;2023-02-01T16:57:18;11.73;;;4.07;;
27265;SDS011;14766;51.380;13.762;2023-02-01T16:59:49;9.27;;;3.97;;
27265;SDS011;14766;51.380;13.762;2023-02-01T17:02:18;7.32;;;3.22;;
27265;SDS011;14766;51.380;13.762;2023-02-01T17:04:46;6.65;;;2.80;;
27265;SDS011;14766;51.380;13.762;2023-02-01T17:07:15;11.25;;;2.78;;
27265;SDS011;14766;51.380;13.762;2023-02-01T17:09:45;6.32;;;2.70;;
27265;SDS011;14766;51.380;13.762;2023-02-01T17:12:23;6.78;;;2.85;;
27265;SDS011;14766;51.380;13.762;2023-02-01T17:14:52;4.60;;;2.25;;
27265;SDS011;14766;51.380;13.762;2023-02-01T17:17:20;5.97;;;2.72;;
27265;SDS011;14766;51.380;13.762;2023-02-01T17:20:02;4.68;;;2.00;;
27265;SDS011;14766;51.380;13.762;2023-02-01T17:22:30;5.03;;;1.90;;
27265;SDS011;14766;51.380;13.762;2023-02-01T17:24:57;3.92;;;2.05;;
27265;SDS011;14766;51.380;13.762;2023-02-01T17:27:25;4.63;;;1.70;;
27265;SDS011;14766;51.380;13.762;2023-02-01T17:29:56;5.93;;;1.85;;
27265;SDS011;14766;51.380;13.762;2023-02-01T17:32:23;4.85;;;1.90;;
27265;SDS011;14766;51.380;13.762;2023-02-01T17:34:51;5.13;;;1.90;;
27265;SDS011;14766;51.380;13.762;2023-02-01T17:37:36;2.80;;;1.63;;
27265;SDS011;14766;51.380;13.762;2023-02-01T17:40:04;5.47;;;1.80;;
27265;SDS011;14766;51.380;13.762;2023-02-01T17:42:31;4.63;;;1.80;;
27265;SDS011;14766;51.380;13.762;2023-02-01T17:44:59;4.32;;;1.60;;
27265;SDS011;14766;51.380;13.762;2023-02-01T17:47:38;1.83;;;1.10;;
27265;SDS011;14766;51.380;13.762;2023-02-01T17:50:08;3.58;;;1.40;;
27265;SDS011;14766;51.380;13.762;2023-02-01T17:52:35;2.05;;;1.25;;
27265;SDS011;14766;51.380;13.762;2023-02-01T17:55:07;2.33;;;1.20;;
27265;SDS011;14766;51.380;13.762;2023-02-01T17:57:45;4.20;;;1.05;;
27265;SDS011;14766;51.380;13.762;2023-02-01T18:00:14;3.45;;;1.50;;
27265;SDS011;14766;51.380;13.762;2023-02-01T18:02:42;3.78;;;1.55;;
27265;SDS011;14766;51.380;13.762;2023-02-01T18:05:14;3.60;;;1.50;;
27265;SDS011;14766;51.380;13.762;2023-02-01T18:07:49;3.50;;;1.50;;
27265;SDS011;14766;51.380;13.762;2023-02-01T18:10:17;3.13;;;1.48;;
27265;SDS011;14766;51.380;13.762;2023-02-01T18:12:47;4.07;;;1.30;;
27265;SDS011;14766;51.380;13.762;2023-02-01T18:15:21;2.88;;;1.27;;
27265;SDS011;14766;51.380;13.762;2023-02-01T18:20:21;2.63;;;1.20;;
27265;SDS011;14766;51.380;13.762;2023-02-01T18:22:50;2.22;;;1.50;;